createdAt,value
2022-10-25T17:27:39.805Z,14.53
2022-10-25T17:30:09.562Z,15.53
2022-10-25T17:32:37.371Z,16.28
2022-10-25T17:35:06.307Z,16.12
2022-10-25T17:37:34.003Z,16.58
2022-10-25T17:40:01.529Z,16.83
2022-10-25T17:42:29.177Z,16.87
2022-10-25T17:44:57.967Z,16.70
2022-10-25T17:47:25.424Z,16.62
2022-10-25T17:49:54.289Z,16.68
2022-10-25T17:52:21.655Z,16.65
2022-10-25T17:54:49.120Z,16.74
2022-10-25T17:57:16.555Z,16.45
2022-10-25T17:59:43.969Z,16.66
2022-10-25T18:02:12.820Z,16.65
2022-10-25T18:04:53.739Z,16.68
2022-10-25T18:07:29.979Z,16.62
2022-10-25T18:10:00.072Z,16.52
2022-10-25T18:12:27.725Z,16.57
2022-10-25T18:14:55.706Z,16.64
2022-10-25T18:17:24.670Z,16.58
2022-10-25T18:19:52.079Z,16.57
2022-10-25T18:22:21.262Z,16.60
2022-10-25T18:24:48.895Z,16.63
2022-10-25T18:27:16.289Z,16.50
2022-10-25T18:29:43.790Z,16.44
2022-10-25T18:32:11.167Z,16.35
2022-10-25T18:34:39.861Z,16.24
2022-10-25T18:37:07.265Z,16.23
2022-10-25T18:39:34.626Z,16.31
2022-10-25T18:42:02.006Z,16.19
2022-10-25T18:44:29.396Z,16.18
2022-10-25T18:46:56.811Z,16.26
2022-10-25T18:49:24.221Z,16.24
2022-10-25T18:51:53.239Z,16.17
2022-10-25T18:54:20.640Z,16.17
2022-10-25T18:56:48.040Z,16.26
2022-10-25T18:59:15.432Z,16.28
2022-10-25T19:01:42.920Z,16.33
2022-10-25T19:04:10.385Z,16.27
2022-10-25T19:06:37.852Z,16.25
2022-10-25T19:09:06.610Z,16.20
2022-10-25T19:11:35.134Z,16.18
2022-10-25T19:14:03.934Z,16.34
2022-10-25T19:16:31.348Z,16.33
2022-10-25T19:19:02.307Z,16.27
2022-10-25T19:21:29.726Z,16.25
2022-10-25T19:23:57.116Z,16.03
2022-10-25T19:26:25.827Z,16.24
2022-10-25T19:28:57.653Z,16.11
2022-10-25T19:31:25.273Z,16.09
2022-10-25T19:33:53.661Z,16.06
2022-10-25T19:36:21.376Z,16.14
2022-10-25T19:38:49.252Z,16.12
2022-10-25T19:41:18.912Z,15.98
2022-10-25T19:43:48.234Z,16.03
2022-10-25T19:46:16.617Z,16.06
2022-10-25T19:48:44.029Z,16.14
2022-10-25T19:51:12.789Z,15.98
2022-10-25T19:53:40.834Z,15.96
2022-10-25T19:56:10.605Z,15.96
2022-10-25T19:58:38.258Z,15.83
2022-10-25T20:01:09.096Z,15.78
2022-10-25T20:03:37.590Z,15.65
2022-10-25T20:06:08.253Z,15.60
2022-10-25T20:08:37.191Z,15.46
2022-10-25T20:11:05.617Z,15.41
2022-10-25T20:13:33.237Z,15.43
2022-10-25T20:16:00.708Z,15.42
2022-10-25T20:18:32.262Z,15.45
2022-10-25T20:21:01.793Z,15.38
2022-10-25T20:23:29.738Z,15.41
2022-10-25T20:25:57.139Z,15.44
2022-10-25T20:28:24.702Z,15.45
2022-10-25T20:30:52.623Z,15.37
2022-10-25T20:33:20.412Z,15.20
2022-10-25T20:35:49.127Z,15.37
2022-10-25T20:38:16.945Z,15.33
2022-10-25T20:40:45.236Z,15.32
2022-10-25T20:43:12.670Z,15.26
2022-10-25T20:45:41.383Z,15.17
2022-10-25T20:48:11.141Z,15.19
2022-10-25T20:50:38.532Z,15.06
2022-10-25T20:53:10.895Z,15.11
2022-10-25T20:55:38.902Z,15.24
2022-10-25T20:58:06.398Z,15.23
2022-10-25T21:00:34.057Z,15.34
2022-10-25T21:03:01.896Z,15.27
2022-10-25T21:05:29.353Z,15.21
2022-10-25T21:07:56.749Z,15.10
2022-10-25T21:10:26.855Z,15.15
2022-10-25T21:12:54.267Z,15.04
2022-10-25T21:15:21.656Z,15.10
2022-10-25T21:17:50.265Z,15.06
2022-10-25T21:20:18.072Z,14.88
2022-10-25T21:22:47.533Z,14.99
2022-10-25T21:25:15.437Z,15.00
2022-10-25T21:27:44.226Z,15.02
2022-10-25T21:30:12.137Z,14.97
2022-10-25T21:32:39.796Z,14.96
2022-10-25T21:35:07.688Z,14.92
2022-10-25T21:37:37.211Z,14.85
2022-10-25T21:40:04.967Z,14.76
2022-10-25T21:42:34.904Z,14.68
2022-10-25T21:45:03.812Z,14.83
2022-10-25T21:47:31.263Z,14.77
2022-10-25T21:49:58.659Z,14.71
2022-10-25T21:52:26.211Z,14.72
2022-10-25T21:54:53.632Z,14.62
2022-10-25T21:57:21.032Z,14.64
2022-10-25T21:59:48.421Z,14.63
2022-10-25T22:02:19.669Z,14.71
2022-10-25T22:04:47.203Z,14.55
2022-10-25T22:07:14.624Z,14.68
2022-10-25T22:09:42.091Z,14.65
2022-10-25T22:12:09.508Z,14.62
2022-10-25T22:14:37.072Z,14.62
2022-10-25T22:17:04.449Z,14.61
2022-10-25T22:19:33.175Z,14.59
2022-10-25T22:22:00.577Z,14.56
2022-10-25T22:24:27.970Z,14.44
2022-10-25T22:26:55.416Z,14.22
2022-10-25T22:29:22.808Z,14.64
2022-10-25T22:31:50.197Z,14.52
2022-10-25T22:34:17.588Z,14.54
2022-10-25T22:36:46.351Z,14.59
2022-10-25T22:39:13.723Z,14.46
2022-10-25T22:41:41.222Z,14.31
2022-10-25T22:44:08.783Z,14.43
2022-10-25T22:46:36.937Z,14.31
2022-10-25T22:49:06.803Z,14.27
2022-10-25T22:51:35.015Z,14.11
2022-10-25T22:54:04.288Z,14.47
2022-10-25T22:56:32.283Z,14.58
2022-10-25T22:59:01.355Z,14.48
2022-10-25T23:01:30.410Z,14.31
2022-10-25T23:03:59.895Z,14.32
2022-10-25T23:06:29.179Z,14.32
2022-10-25T23:08:58.102Z,14.31
2022-10-25T23:11:28.957Z,14.21
2022-10-25T23:13:57.856Z,14.14
2022-10-25T23:16:27.610Z,14.21
2022-10-25T23:18:55.382Z,14.27
2022-10-25T23:21:24.148Z,14.27
2022-10-25T23:23:52.740Z,14.23
2022-10-25T23:26:22.969Z,14.20
2022-10-25T23:28:52.094Z,14.10
2022-10-25T23:31:19.684Z,14.18
2022-10-25T23:33:51.601Z,14.24
2022-10-25T23:36:21.187Z,14.20
2022-10-25T23:38:53.120Z,14.23
2022-10-25T23:41:22.577Z,14.02
2022-10-25T23:43:50.110Z,13.98
2022-10-25T23:46:19.136Z,14.04
2022-10-25T23:48:46.951Z,14.04
2022-10-25T23:51:17.387Z,14.09
2022-10-25T23:53:45.535Z,14.03
2022-10-25T23:56:14.532Z,13.99
2022-10-25T23:58:42.436Z,14.10
